sensor_id;sensor_type;location;lat;lon;timestamp;P1;durP1;ratioP1;P2;durP2;ratioP2
48403;SDS011;34202;52.536;6.042;2023-12-07T00:04:15;31.00;;;16.30;;
48403;SDS011;34202;52.536;6.042;2023-12-07T00:09:16;28.60;;;17.30;;
48403;SDS011;34202;52.536;6.042;2023-12-07T00:14:16;26.40;;;16.50;;
48403;SDS011;34202;52.536;6.042;2023-12-07T00:19:17;26.00;;;17.20;;
48403;SDS011;34202;52.536;6.042;2023-12-07T00:24:17;23.20;;;15.60;;
48403;SDS011;34202;52.536;6.042;2023-12-07T00:29:18;21.50;;;15.20;;
48403;SDS011;34202;52.536;6.042;2023-12-07T00:34:18;23.70;;;15.90;;
48403;SDS011;34202;52.536;6.042;2023-12-07T00:39:18;22.60;;;14.90;;
48403;SDS011;34202;52.536;6.042;2023-12-07T00:44:19;24.60;;;15.80;;
48403;SDS011;34202;52.536;6.042;2023-12-07T00:49:19;26.00;;;16.30;;
48403;SDS011;34202;52.536;6.042;2023-12-07T00:54:19;22.00;;;15.00;;
48403;SDS011;34202;52.536;6.042;2023-12-07T00:59:20;23.50;;;15.60;;
48403;SDS011;34202;52.536;6.042;2023-12-07T01:04:20;22.50;;;15.50;;
48403;SDS011;34202;52.536;6.042;2023-12-07T01:09:21;20.10;;;14.20;;
48403;SDS011;34202;52.536;6.042;2023-12-07T01:14:21;21.70;;;16.20;;
48403;SDS011;34202;52.536;6.042;2023-12-07T01:19:22;22.30;;;15.80;;
48403;SDS011;34202;52.536;6.042;2023-12-07T01:24:22;22.90;;;15.50;;
48403;SDS011;34202;52.536;6.042;2023-12-07T01:29:22;25.80;;;16.10;;
48403;SDS011;34202;52.536;6.042;2023-12-07T01:34:23;22.10;;;14.10;;
48403;SDS011;34202;52.536;6.042;2023-12-07T01:39:23;21.40;;;13.70;;
48403;SDS011;34202;52.536;6.042;2023-12-07T01:44:24;21.60;;;15.20;;
48403;SDS011;34202;52.536;6.042;2023-12-07T01:49:25;23.60;;;14.90;;
48403;SDS011;34202;52.536;6.042;2023-12-07T01:54:26;20.50;;;15.00;;
48403;SDS011;34202;52.536;6.042;2023-12-07T01:59:26;21.40;;;14.30;;
48403;SDS011;34202;52.536;6.042;2023-12-07T02:04:27;24.70;;;16.80;;
48403;SDS011;34202;52.536;6.042;2023-12-07T02:09:27;26.10;;;16.30;;
48403;SDS011;34202;52.536;6.042;2023-12-07T02:14:28;25.30;;;16.50;;
48403;SDS011;34202;52.536;6.042;2023-12-07T02:19:46;24.20;;;16.40;;
48403;SDS011;34202;52.536;6.042;2023-12-07T02:24:48;22.30;;;15.10;;
48403;SDS011;34202;52.536;6.042;2023-12-07T02:30:04;19.50;;;14.20;;
48403;SDS011;34202;52.536;6.042;2023-12-07T02:35:06;25.80;;;15.90;;
48403;SDS011;34202;52.536;6.042;2023-12-07T02:40:08;22.30;;;16.40;;
48403;SDS011;34202;52.536;6.042;2023-12-07T02:45:12;24.20;;;17.50;;
48403;SDS011;34202;52.536;6.042;2023-12-07T02:50:13;27.60;;;16.10;;
48403;SDS011;34202;52.536;6.042;2023-12-07T02:55:14;25.50;;;16.50;;
48403;SDS011;34202;52.536;6.042;2023-12-07T03:00:15;26.60;;;17.50;;
48403;SDS011;34202;52.536;6.042;2023-12-07T03:05:15;28.90;;;17.60;;
48403;SDS011;34202;52.536;6.042;2023-12-07T03:10:15;28.00;;;17.60;;
48403;SDS011;34202;52.536;6.042;2023-12-07T03:19:46;24.10;;;16.90;;
48403;SDS011;34202;52.536;6.042;2023-12-07T03:24:48;28.80;;;18.10;;
48403;SDS011;34202;52.536;6.042;2023-12-07T03:29:50;24.40;;;16.10;;
48403;SDS011;34202;52.536;6.042;2023-12-07T03:34:51;32.10;;;17.40;;
48403;SDS011;34202;52.536;6.042;2023-12-07T03:39:51;28.90;;;17.90;;
48403;SDS011;34202;52.536;6.042;2023-12-07T03:44:52;27.60;;;17.80;;
48403;SDS011;34202;52.536;6.042;2023-12-07T03:49:52;26.90;;;19.10;;
48403;SDS011;34202;52.536;6.042;2023-12-07T03:54:53;25.90;;;17.40;;
48403;SDS011;34202;52.536;6.042;2023-12-07T03:59:53;25.20;;;18.20;;
48403;SDS011;34202;52.536;6.042;2023-12-07T04:04:53;29.10;;;19.20;;
48403;SDS011;34202;52.536;6.042;2023-12-07T04:09:54;28.40;;;18.90;;
48403;SDS011;34202;52.536;6.042;2023-12-07T04:14:55;27.00;;;17.50;;
48403;SDS011;34202;52.536;6.042;2023-12-07T04:19:56;27.70;;;18.30;;
48403;SDS011;34202;52.536;6.042;2023-12-07T04:24:57;30.40;;;18.10;;
48403;SDS011;34202;52.536;6.042;2023-12-07T04:29:57;28.90;;;18.20;;
48403;SDS011;34202;52.536;6.042;2023-12-07T04:34:57;33.40;;;19.70;;
48403;SDS011;34202;52.536;6.042;2023-12-07T04:39:58;27.50;;;18.50;;
48403;SDS011;34202;52.536;6.042;2023-12-07T04:44:58;28.80;;;17.60;;
48403;SDS011;34202;52.536;6.042;2023-12-07T04:49:59;31.30;;;18.30;;
48403;SDS011;34202;52.536;6.042;2023-12-07T04:54:59;27.40;;;18.00;;
48403;SDS011;34202;52.536;6.042;2023-12-07T05:00:00;31.60;;;19.40;;
48403;SDS011;34202;52.536;6.042;2023-12-07T05:05:01;29.20;;;19.50;;
48403;SDS011;34202;52.536;6.042;2023-12-07T05:10:01;36.60;;;21.40;;
48403;SDS011;34202;52.536;6.042;2023-12-07T05:15:02;30.10;;;19.20;;
48403;SDS011;34202;52.536;6.042;2023-12-07T05:20:04;29.10;;;18.90;;
48403;SDS011;34202;52.536;6.042;2023-12-07T05:25:06;26.20;;;18.20;;
48403;SDS011;34202;52.536;6.042;2023-12-07T05:30:07;29.30;;;20.00;;
48403;SDS011;34202;52.536;6.042;2023-12-07T05:35:07;28.50;;;18.70;;
48403;SDS011;34202;52.536;6.042;2023-12-07T05:40:08;28.10;;;18.70;;
48403;SDS011;34202;52.536;6.042;2023-12-07T05:45:10;26.30;;;16.80;;
48403;SDS011;34202;52.536;6.042;2023-12-07T05:50:11;26.50;;;17.70;;
48403;SDS011;34202;52.536;6.042;2023-12-07T05:55:11;24.80;;;16.90;;
48403;SDS011;34202;52.536;6.042;2023-12-07T06:00:12;25.40;;;16.70;;
48403;SDS011;34202;52.536;6.042;2023-12-07T06:05:13;26.30;;;16.30;;
48403;SDS011;34202;52.536;6.042;2023-12-07T06:10:14;25.60;;;17.10;;
48403;SDS011;34202;52.536;6.042;2023-12-07T06:15:14;34.10;;;19.40;;
48403;SDS011;34202;52.536;6.042;2023-12-07T06:20:15;24.80;;;16.40;;
48403;SDS011;34202;52.536;6.042;2023-12-07T06:25:15;24.70;;;15.40;;
48403;SDS011;34202;52.536;6.042;2023-12-07T06:30:16;24.00;;;15.80;;
48403;SDS011;34202;52.536;6.042;2023-12-07T06:35:18;26.00;;;16.70;;
48403;SDS011;34202;52.536;6.042;2023-12-07T06:40:18;27.70;;;17.40;;
48403;SDS011;34202;52.536;6.042;2023-12-07T06:45:20;28.90;;;17.00;;
48403;SDS011;34202;52.536;6.042;2023-12-07T06:50:20;27.70;;;16.50;;
48403;SDS011;34202;52.536;6.042;2023-12-07T06:55:21;29.80;;;19.90;;
48403;SDS011;34202;52.536;6.042;2023-12-07T07:00:22;30.90;;;18.70;;
48403;SDS011;34202;52.536;6.042;2023-12-07T07:05:24;30.20;;;18.60;;
48403;SDS011;34202;52.536;6.042;2023-12-07T07:10:25;31.90;;;19.70;;
48403;SDS011;34202;52.536;6.042;2023-12-07T07:15:25;49.90;;;23.50;;
48403;SDS011;34202;52.536;6.042;2023-12-07T07:20:25;30.40;;;18.50;;
48403;SDS011;34202;52.536;6.042;2023-12-07T07:25:26;35.20;;;20.30;;
48403;SDS011;34202;52.536;6.042;2023-12-07T07:30:27;42.20;;;22.50;;
48403;SDS011;34202;52.536;6.042;2023-12-07T07:35:27;31.70;;;20.10;;
48403;SDS011;34202;52.536;6.042;2023-12-07T07:40:28;34.70;;;20.10;;
48403;SDS011;34202;52.536;6.042;2023-12-07T07:45:28;34.60;;;21.80;;
48403;SDS011;34202;52.536;6.042;2023-12-07T07:50:29;40.30;;;24.10;;
48403;SDS011;34202;52.536;6.042;2023-12-07T07:55:29;43.90;;;24.90;;
48403;SDS011;34202;52.536;6.042;2023-12-07T08:00:31;43.10;;;21.40;;
48403;SDS011;34202;52.536;6.042;2023-12-07T08:05:33;35.60;;;21.10;;
48403;SDS011;34202;52.536;6.042;2023-12-07T08:10:33;113.80;;;24.30;;
48403;SDS011;34202;52.536;6.042;2023-12-07T08:15:34;52.30;;;23.30;;
48403;SDS011;34202;52.536;6.042;2023-12-07T08:20:34;35.60;;;18.50;;
48403;SDS011;34202;52.536;6.042;2023-12-07T08:25:34;44.20;;;17.90;;
48403;SDS011;34202;52.536;6.042;2023-12-07T08:30:35;32.70;;;18.00;;
48403;SDS011;34202;52.536;6.042;2023-12-07T08:35:36;32.50;;;19.90;;
48403;SDS011;34202;52.536;6.042;2023-12-07T08:40:36;49.90;;;19.60;;
48403;SDS011;34202;52.536;6.042;2023-12-07T08:45:37;40.60;;;20.90;;
48403;SDS011;34202;52.536;6.042;2023-12-07T08:50:38;45.40;;;18.10;;
48403;SDS011;34202;52.536;6.042;2023-12-07T08:55:38;45.40;;;19.80;;
48403;SDS011;34202;52.536;6.042;2023-12-07T09:00:39;34.50;;;17.30;;
48403;SDS011;34202;52.536;6.042;2023-12-07T09:05:40;37.00;;;17.40;;
48403;SDS011;34202;52.536;6.042;2023-12-07T09:10:40;41.50;;;20.90;;
48403;SDS011;34202;52.536;6.042;2023-12-07T09:15:40;54.80;;;23.00;;
48403;SDS011;34202;52.536;6.042;2023-12-07T09:20:42;39.50;;;21.40;;
48403;SDS011;34202;52.536;6.042;2023-12-07T09:25:45;43.90;;;20.80;;
48403;SDS011;34202;52.536;6.042;2023-12-07T09:30:46;41.20;;;20.00;;
48403;SDS011;34202;52.536;6.042;2023-12-07T09:35:46;38.40;;;20.40;;
48403;SDS011;34202;52.536;6.042;2023-12-07T09:40:47;49.00;;;21.80;;
48403;SDS011;34202;52.536;6.042;2023-12-07T09:45:52;46.90;;;24.00;;
48403;SDS011;34202;52.536;6.042;2023-12-07T09:50:55;100.80;;;27.60;;
48403;SDS011;34202;52.536;6.042;2023-12-07T09:55:56;53.40;;;23.50;;
48403;SDS011;34202;52.536;6.042;2023-12-07T10:00:57;34.10;;;18.70;;
48403;SDS011;34202;52.536;6.042;2023-12-07T10:05:58;59.90;;;25.10;;
48403;SDS011;34202;52.536;6.042;2023-12-07T10:16:16;44.50;;;25.80;;
48403;SDS011;34202;52.536;6.042;2023-12-07T10:21:23;40.20;;;22.90;;
48403;SDS011;34202;52.536;6.042;2023-12-07T10:26:31;44.70;;;23.00;;
48403;SDS011;34202;52.536;6.042;2023-12-07T10:31:32;65.50;;;24.70;;
48403;SDS011;34202;52.536;6.042;2023-12-07T10:36:33;55.70;;;24.60;;
48403;SDS011;34202;52.536;6.042;2023-12-07T10:41:33;51.40;;;23.30;;
48403;SDS011;34202;52.536;6.042;2023-12-07T10:46:35;53.40;;;22.90;;
48403;SDS011;34202;52.536;6.042;2023-12-07T10:51:41;46.00;;;21.60;;
48403;SDS011;34202;52.536;6.042;2023-12-07T10:56:44;43.00;;;22.30;;
48403;SDS011;34202;52.536;6.042;2023-12-07T11:01:45;46.00;;;22.60;;
48403;SDS011;34202;52.536;6.042;2023-12-07T11:06:48;36.40;;;21.60;;
48403;SDS011;34202;52.536;6.042;2023-12-07T11:11:54;42.40;;;21.60;;
48403;SDS011;34202;52.536;6.042;2023-12-07T11:16:59;44.50;;;23.30;;
48403;SDS011;34202;52.536;6.042;2023-12-07T11:22:00;43.40;;;23.50;;
48403;SDS011;34202;52.536;6.042;2023-12-07T11:27:01;44.10;;;21.40;;
48403;SDS011;34202;52.536;6.042;2023-12-07T11:32:02;36.10;;;21.60;;
48403;SDS011;34202;52.536;6.042;2023-12-07T11:37:04;45.00;;;21.10;;
48403;SDS011;34202;52.536;6.042;2023-12-07T11:42:12;42.80;;;21.40;;
48403;SDS011;34202;52.536;6.042;2023-12-07T11:47:16;36.10;;;19.20;;
48403;SDS011;34202;52.536;6.042;2023-12-07T11:52:19;45.10;;;25.40;;
48403;SDS011;34202;52.536;6.042;2023-12-07T11:57:20;43.40;;;21.80;;
48403;SDS011;34202;52.536;6.042;2023-12-07T12:02:20;37.30;;;21.50;;
48403;SDS011;34202;52.536;6.042;2023-12-07T12:07:21;37.50;;;22.00;;
48403;SDS011;34202;52.536;6.042;2023-12-07T12:12:25;51.80;;;22.10;;
48403;SDS011;34202;52.536;6.042;2023-12-07T12:17:25;40.50;;;23.00;;
48403;SDS011;34202;52.536;6.042;2023-12-07T12:22:26;34.50;;;21.20;;
48403;SDS011;34202;52.536;6.042;2023-12-07T12:27:26;37.20;;;20.90;;
48403;SDS011;34202;52.536;6.042;2023-12-07T12:32:26;34.40;;;20.60;;
48403;SDS011;34202;52.536;6.042;2023-12-07T12:37:27;29.90;;;18.10;;
48403;SDS011;34202;52.536;6.042;2023-12-07T12:42:33;34.00;;;19.90;;
48403;SDS011;34202;52.536;6.042;2023-12-07T12:47:34;33.30;;;20.10;;
48403;SDS011;34202;52.536;6.042;2023-12-07T12:52:35;31.40;;;17.90;;
48403;SDS011;34202;52.536;6.042;2023-12-07T12:57:36;32.10;;;19.60;;
48403;SDS011;34202;52.536;6.042;2023-12-07T13:02:38;31.30;;;19.80;;
48403;SDS011;34202;52.536;6.042;2023-12-07T13:07:38;38.40;;;21.80;;
48403;SDS011;34202;52.536;6.042;2023-12-07T13:12:38;37.70;;;21.70;;
48403;SDS011;34202;52.536;6.042;2023-12-07T13:17:39;38.80;;;19.80;;
48403;SDS011;34202;52.536;6.042;2023-12-07T13:22:40;37.50;;;20.30;;
48403;SDS011;34202;52.536;6.042;2023-12-07T13:27:43;37.20;;;21.90;;
48403;SDS011;34202;52.536;6.042;2023-12-07T13:32:43;46.40;;;23.40;;
48403;SDS011;34202;52.536;6.042;2023-12-07T13:37:44;43.40;;;24.70;;
48403;SDS011;34202;52.536;6.042;2023-12-07T13:42:44;45.20;;;22.00;;
48403;SDS011;34202;52.536;6.042;2023-12-07T13:47:44;46.00;;;24.70;;
48403;SDS011;34202;52.536;6.042;2023-12-07T13:52:45;42.10;;;23.20;;
48403;SDS011;34202;52.536;6.042;2023-12-07T13:57:46;44.90;;;23.30;;
48403;SDS011;34202;52.536;6.042;2023-12-07T14:02:46;46.60;;;24.20;;
48403;SDS011;34202;52.536;6.042;2023-12-07T14:07:47;46.70;;;23.70;;
48403;SDS011;34202;52.536;6.042;2023-12-07T14:12:47;43.80;;;24.30;;
48403;SDS011;34202;52.536;6.042;2023-12-07T14:17:48;47.80;;;25.90;;
48403;SDS011;34202;52.536;6.042;2023-12-07T14:22:48;48.90;;;27.40;;
48403;SDS011;34202;52.536;6.042;2023-12-07T14:27:49;49.30;;;26.70;;
48403;SDS011;34202;52.536;6.042;2023-12-07T14:32:49;39.50;;;23.20;;
48403;SDS011;34202;52.536;6.042;2023-12-07T14:37:51;45.60;;;25.80;;
48403;SDS011;34202;52.536;6.042;2023-12-07T14:42:52;45.90;;;23.00;;
48403;SDS011;34202;52.536;6.042;2023-12-07T14:47:52;44.10;;;24.00;;
48403;SDS011;34202;52.536;6.042;2023-12-07T14:52:52;55.60;;;25.90;;
48403;SDS011;34202;52.536;6.042;2023-12-07T14:57:53;58.80;;;29.00;;
48403;SDS011;34202;52.536;6.042;2023-12-07T15:02:53;58.40;;;30.60;;
48403;SDS011;34202;52.536;6.042;2023-12-07T15:07:54;65.40;;;33.80;;
48403;SDS011;34202;52.536;6.042;2023-12-07T15:12:55;63.60;;;32.10;;
48403;SDS011;34202;52.536;6.042;2023-12-07T15:17:56;64.90;;;32.00;;
48403;SDS011;34202;52.536;6.042;2023-12-07T15:22:56;68.70;;;34.90;;
48403;SDS011;34202;52.536;6.042;2023-12-07T15:27:57;62.10;;;29.90;;
48403;SDS011;34202;52.536;6.042;2023-12-07T15:32:58;64.60;;;33.60;;
48403;SDS011;34202;52.536;6.042;2023-12-07T15:37:58;73.90;;;36.60;;
48403;SDS011;34202;52.536;6.042;2023-12-07T15:42:58;69.30;;;33.90;;
48403;SDS011;34202;52.536;6.042;2023-12-07T15:47:59;73.90;;;35.20;;
48403;SDS011;34202;52.536;6.042;2023-12-07T15:52:59;65.10;;;32.10;;
48403;SDS011;34202;52.536;6.042;2023-12-07T15:57:59;71.60;;;36.80;;
48403;SDS011;34202;52.536;6.042;2023-12-07T16:03:00;69.80;;;32.10;;
48403;SDS011;34202;52.536;6.042;2023-12-07T16:08:01;67.50;;;34.10;;
48403;SDS011;34202;52.536;6.042;2023-12-07T16:13:03;63.80;;;34.90;;
48403;SDS011;34202;52.536;6.042;2023-12-07T16:18:03;68.20;;;37.10;;
48403;SDS011;34202;52.536;6.042;2023-12-07T16:23:03;74.00;;;36.20;;
48403;SDS011;34202;52.536;6.042;2023-12-07T16:28:04;72.30;;;37.20;;
48403;SDS011;34202;52.536;6.042;2023-12-07T16:33:04;71.20;;;38.30;;
48403;SDS011;34202;52.536;6.042;2023-12-07T16:38:04;67.10;;;35.40;;
48403;SDS011;34202;52.536;6.042;2023-12-07T16:43:05;68.70;;;30.60;;
48403;SDS011;34202;52.536;6.042;2023-12-07T16:48:06;62.10;;;31.00;;
48403;SDS011;34202;52.536;6.042;2023-12-07T16:53:06;78.50;;;35.90;;
48403;SDS011;34202;52.536;6.042;2023-12-07T16:58:06;67.50;;;34.20;;
48403;SDS011;34202;52.536;6.042;2023-12-07T17:03:07;70.70;;;36.80;;
48403;SDS011;34202;52.536;6.042;2023-12-07T17:08:08;63.60;;;35.90;;
48403;SDS011;34202;52.536;6.042;2023-12-07T17:13:08;67.80;;;34.60;;
48403;SDS011;34202;52.536;6.042;2023-12-07T17:18:09;69.60;;;38.70;;
48403;SDS011;34202;52.536;6.042;2023-12-07T17:23:11;74.00;;;36.80;;
48403;SDS011;34202;52.536;6.042;2023-12-07T17:28:12;68.50;;;35.30;;
48403;SDS011;34202;52.536;6.042;2023-12-07T17:33:12;60.40;;;30.70;;
48403;SDS011;34202;52.536;6.042;2023-12-07T17:38:12;67.80;;;34.10;;
48403;SDS011;34202;52.536;6.042;2023-12-07T17:43:13;63.80;;;30.90;;
48403;SDS011;34202;52.536;6.042;2023-12-07T17:48:13;64.60;;;30.00;;
48403;SDS011;34202;52.536;6.042;2023-12-07T17:53:13;62.40;;;31.90;;
48403;SDS011;34202;52.536;6.042;2023-12-07T17:58:14;62.60;;;34.40;;
48403;SDS011;34202;52.536;6.042;2023-12-07T18:03:14;64.70;;;32.60;;
48403;SDS011;34202;52.536;6.042;2023-12-07T18:08:15;61.00;;;31.10;;
48403;SDS011;34202;52.536;6.042;2023-12-07T18:13:15;64.30;;;32.00;;
48403;SDS011;34202;52.536;6.042;2023-12-07T18:18:16;64.20;;;31.40;;
48403;SDS011;34202;52.536;6.042;2023-12-07T18:23:16;67.70;;;33.90;;
48403;SDS011;34202;52.536;6.042;2023-12-07T18:28:17;45.10;;;22.30;;
48403;SDS011;34202;52.536;6.042;2023-12-07T18:33:18;64.40;;;32.60;;
48403;SDS011;34202;52.536;6.042;2023-12-07T18:38:18;50.20;;;27.50;;
48403;SDS011;34202;52.536;6.042;2023-12-07T18:43:19;59.50;;;31.10;;
48403;SDS011;34202;52.536;6.042;2023-12-07T18:48:19;69.40;;;34.70;;
48403;SDS011;34202;52.536;6.042;2023-12-07T18:53:20;62.60;;;31.80;;
48403;SDS011;34202;52.536;6.042;2023-12-07T18:58:21;57.30;;;29.20;;
48403;SDS011;34202;52.536;6.042;2023-12-07T19:03:23;62.00;;;30.40;;
48403;SDS011;34202;52.536;6.042;2023-12-07T19:08:24;57.30;;;32.00;;
48403;SDS011;34202;52.536;6.042;2023-12-07T19:13:24;47.40;;;26.00;;
48403;SDS011;34202;52.536;6.042;2023-12-07T19:18:24;62.10;;;31.60;;
48403;SDS011;34202;52.536;6.042;2023-12-07T19:23:25;55.20;;;31.00;;
48403;SDS011;34202;52.536;6.042;2023-12-07T19:28:25;52.60;;;28.10;;
48403;SDS011;34202;52.536;6.042;2023-12-07T19:33:25;49.40;;;27.60;;
48403;SDS011;34202;52.536;6.042;2023-12-07T19:38:26;43.50;;;24.90;;
48403;SDS011;34202;52.536;6.042;2023-12-07T19:43:26;46.30;;;25.80;;
48403;SDS011;34202;52.536;6.042;2023-12-07T19:48:26;51.70;;;27.40;;
48403;SDS011;34202;52.536;6.042;2023-12-07T19:53:27;43.70;;;23.80;;
48403;SDS011;34202;52.536;6.042;2023-12-07T19:58:27;43.30;;;24.30;;
48403;SDS011;34202;52.536;6.042;2023-12-07T20:03:27;44.10;;;22.40;;
48403;SDS011;34202;52.536;6.042;2023-12-07T20:08:28;43.70;;;24.50;;
48403;SDS011;34202;52.536;6.042;2023-12-07T20:13:28;41.90;;;22.40;;
48403;SDS011;34202;52.536;6.042;2023-12-07T20:18:29;41.00;;;22.40;;
48403;SDS011;34202;52.536;6.042;2023-12-07T20:23:30;41.30;;;22.30;;
48403;SDS011;34202;52.536;6.042;2023-12-07T20:28:31;36.40;;;21.20;;
48403;SDS011;34202;52.536;6.042;2023-12-07T20:33:31;44.40;;;22.40;;
48403;SDS011;34202;52.536;6.042;2023-12-07T20:38:31;33.20;;;19.30;;
48403;SDS011;34202;52.536;6.042;2023-12-07T20:43:32;30.70;;;16.90;;
48403;SDS011;34202;52.536;6.042;2023-12-07T20:48:32;28.00;;;16.30;;
48403;SDS011;34202;52.536;6.042;2023-12-07T20:53:33;29.70;;;16.50;;
48403;SDS011;34202;52.536;6.042;2023-12-07T20:58:33;25.10;;;15.10;;
48403;SDS011;34202;52.536;6.042;2023-12-07T21:03:33;26.40;;;15.10;;
48403;SDS011;34202;52.536;6.042;2023-12-07T21:08:34;26.20;;;16.40;;
48403;SDS011;34202;52.536;6.042;2023-12-07T21:13:35;26.10;;;16.00;;
48403;SDS011;34202;52.536;6.042;2023-12-07T21:18:37;27.40;;;14.40;;
48403;SDS011;34202;52.536;6.042;2023-12-07T21:23:37;26.60;;;15.60;;
48403;SDS011;34202;52.536;6.042;2023-12-07T21:28:37;20.20;;;12.90;;
48403;SDS011;34202;52.536;6.042;2023-12-07T21:33:38;21.00;;;13.20;;
48403;SDS011;34202;52.536;6.042;2023-12-07T21:38:41;18.90;;;12.00;;
48403;SDS011;34202;52.536;6.042;2023-12-07T21:43:43;17.50;;;12.00;;
48403;SDS011;34202;52.536;6.042;2023-12-07T21:48:43;17.30;;;11.20;;
48403;SDS011;34202;52.536;6.042;2023-12-07T21:53:44;23.60;;;13.20;;
48403;SDS011;34202;52.536;6.042;2023-12-07T21:58:44;17.70;;;11.60;;
48403;SDS011;34202;52.536;6.042;2023-12-07T22:03:44;17.80;;;11.90;;
48403;SDS011;34202;52.536;6.042;2023-12-07T22:08:45;16.70;;;11.40;;
48403;SDS011;34202;52.536;6.042;2023-12-07T22:13:45;17.40;;;10.90;;
48403;SDS011;34202;52.536;6.042;2023-12-07T22:18:46;14.80;;;10.00;;
48403;SDS011;34202;52.536;6.042;2023-12-07T22:23:46;13.70;;;8.70;;
48403;SDS011;34202;52.536;6.042;2023-12-07T22:28:47;11.00;;;7.80;;
48403;SDS011;34202;52.536;6.042;2023-12-07T22:33:47;15.40;;;9.90;;
48403;SDS011;34202;52.536;6.042;2023-12-07T22:38:48;14.70;;;8.70;;
48403;SDS011;34202;52.536;6.042;2023-12-07T22:43:48;12.30;;;9.60;;
48403;SDS011;34202;52.536;6.042;2023-12-07T22:48:48;14.40;;;8.70;;
48403;SDS011;34202;52.536;6.042;2023-12-07T22:53:49;12.90;;;9.50;;
48403;SDS011;34202;52.536;6.042;2023-12-07T22:58:49;17.20;;;10.80;;
48403;SDS011;34202;52.536;6.042;2023-12-07T23:03:50;14.40;;;9.10;;
48403;SDS011;34202;52.536;6.042;2023-12-07T23:08:50;12.30;;;8.70;;
48403;SDS011;34202;52.536;6.042;2023-12-07T23:13:50;15.00;;;9.70;;
48403;SDS011;34202;52.536;6.042;2023-12-07T23:18:51;14.50;;;10.10;;
48403;SDS011;34202;52.536;6.042;2023-12-07T23:23:52;12.80;;;9.00;;
48403;SDS011;34202;52.536;6.042;2023-12-07T23:28:52;15.70;;;9.30;;
48403;SDS011;34202;52.536;6.042;2023-12-07T23:33:52;12.70;;;9.10;;
48403;SDS011;34202;52.536;6.042;2023-12-07T23:38:52;13.50;;;9.40;;
48403;SDS011;34202;52.536;6.042;2023-12-07T23:43:53;16.20;;;9.50;;
48403;SDS011;34202;52.536;6.042;2023-12-07T23:48:53;15.20;;;10.20;;
48403;SDS011;34202;52.536;6.042;2023-12-07T23:53:53;14.40;;;9.10;;
48403;SDS011;34202;52.536;6.042;2023-12-07T23:58:54;16.50;;;10.40;;
